createdAt,value
2018-09-21T04:29:25.347Z,8.60
2018-09-21T04:31:53.912Z,8.57
2018-09-21T04:34:22.414Z,8.73
2018-09-21T04:36:51.003Z,8.70
2018-09-21T04:39:19.519Z,8.43
2018-09-21T04:41:48.047Z,8.20
2018-09-21T04:44:16.579Z,8.23
2018-09-21T04:46:45.128Z,8.43
2018-09-21T04:49:13.643Z,7.83
2018-09-21T04:51:42.138Z,7.57
2018-09-21T04:54:11.001Z,7.83
2018-09-21T04:56:39.628Z,8.08
2018-09-21T04:59:08.185Z,8.47
2018-09-21T05:01:36.689Z,7.73
2018-09-21T05:04:05.223Z,9.10
2018-09-21T05:06:33.726Z,8.83
2018-09-21T05:09:02.241Z,8.53
2018-09-21T05:11:30.768Z,9.53
2018-09-21T05:13:59.346Z,8.23
2018-09-21T05:16:27.837Z,9.03
2018-09-21T05:18:56.377Z,9.33
2018-09-21T05:21:24.886Z,9.00
2018-09-21T05:23:53.438Z,8.90
2018-09-21T05:26:21.954Z,8.57
2018-09-21T05:28:50.510Z,9.30
2018-09-21T05:31:19.036Z,9.40
2018-09-21T05:33:47.562Z,9.10
2018-09-21T05:36:16.104Z,8.87
2018-09-21T05:38:44.626Z,9.20
2018-09-21T05:41:13.117Z,9.33
2018-09-21T05:43:41.643Z,9.00
2018-09-21T05:46:10.166Z,8.97
2018-09-21T05:48:38.771Z,9.07
2018-09-21T05:51:07.380Z,8.57
2018-09-21T05:53:35.913Z,8.77
2018-09-21T05:56:04.479Z,9.13
2018-09-21T05:58:32.982Z,9.87
2018-09-21T06:01:01.502Z,9.33
2018-09-21T06:03:30.046Z,11.10
2018-09-21T06:05:58.568Z,9.50
2018-09-21T06:08:27.224Z,9.77
2018-09-21T06:10:55.762Z,10.13
2018-09-21T06:13:24.334Z,9.80
2018-09-21T06:15:52.841Z,9.13
2018-09-21T06:18:21.382Z,10.07
2018-09-21T06:20:49.903Z,10.60
2018-09-21T06:23:18.446Z,11.17
2018-09-21T06:25:47.012Z,10.67
2018-09-21T06:28:15.570Z,11.00
2018-09-21T06:30:44.095Z,10.03
2018-09-21T06:33:12.639Z,10.17
2018-09-21T06:35:41.192Z,10.45
2018-09-21T06:38:09.713Z,10.27
2018-09-21T06:40:38.251Z,10.55
2018-09-21T06:43:06.860Z,11.63
2018-09-21T06:45:35.439Z,11.73
2018-09-21T06:48:03.967Z,10.85
2018-09-21T06:50:32.511Z,11.90
2018-09-21T06:53:01.143Z,12.53
2018-09-21T06:55:29.683Z,11.38
2018-09-21T06:57:58.195Z,12.20
2018-09-21T07:00:26.743Z,12.18
2018-09-21T07:02:55.258Z,11.12
2018-09-21T07:05:23.826Z,10.17
2018-09-21T07:07:52.364Z,11.13
2018-09-21T07:10:20.911Z,11.20
2018-09-21T07:12:49.529Z,12.27
2018-09-21T07:15:18.084Z,10.67
2018-09-21T07:17:46.606Z,11.37
2018-09-21T07:20:15.141Z,11.63
2018-09-21T07:22:43.664Z,10.97
2018-09-21T07:25:12.203Z,10.73
2018-09-21T07:27:40.742Z,11.67
2018-09-21T07:30:09.284Z,11.33
2018-09-21T07:32:37.870Z,10.67
2018-09-21T07:35:06.403Z,12.00
2018-09-21T07:37:34.924Z,12.37
2018-09-21T07:40:04.019Z,13.25
2018-09-21T07:42:32.538Z,13.03
2018-09-21T07:45:01.088Z,12.93
2018-09-21T07:47:29.621Z,13.90
2018-09-21T07:49:58.175Z,13.83
2018-09-21T07:52:26.691Z,14.07
2018-09-21T07:54:55.215Z,12.03
2018-09-21T07:57:23.730Z,11.20
2018-09-21T07:59:52.215Z,10.90
2018-09-21T08:02:20.750Z,10.35
2018-09-21T08:04:49.306Z,10.75
2018-09-21T08:07:17.959Z,11.12
2018-09-21T08:09:46.430Z,12.05
2018-09-21T08:12:14.979Z,11.25
2018-09-21T08:14:43.512Z,11.63
2018-09-21T08:17:12.045Z,11.70
2018-09-21T08:19:40.619Z,11.40
2018-09-21T08:22:09.155Z,11.03
2018-09-21T08:24:37.665Z,10.88
2018-09-21T08:27:06.385Z,11.68
2018-09-21T08:29:34.880Z,10.82
2018-09-21T08:32:03.434Z,11.00
2018-09-21T08:34:31.941Z,10.90
2018-09-21T08:37:00.585Z,10.55
2018-09-21T08:39:29.061Z,10.75
2018-09-21T08:41:57.623Z,11.18
2018-09-21T08:44:26.153Z,10.45
2018-09-21T08:46:54.670Z,10.50
2018-09-21T08:49:23.203Z,10.08
2018-09-21T08:51:51.730Z,9.68
2018-09-21T08:54:20.274Z,9.63
2018-09-21T08:56:49.640Z,10.15
2018-09-21T08:59:18.140Z,10.00
2018-09-21T09:01:46.750Z,9.23
2018-09-21T09:04:15.273Z,9.28
2018-09-21T09:06:43.815Z,9.18
2018-09-21T09:09:12.337Z,9.40
2018-09-21T09:11:40.906Z,9.38
2018-09-21T09:14:09.473Z,10.03
2018-09-21T09:16:37.993Z,9.63
2018-09-21T09:19:06.602Z,10.75
2018-09-21T09:21:35.110Z,18.90
2018-09-21T09:24:03.667Z,12.50
2018-09-21T09:26:32.195Z,11.08
2018-09-21T09:29:00.741Z,12.03
2018-09-21T09:31:29.285Z,11.33
2018-09-21T09:33:57.839Z,10.23
2018-09-21T09:36:26.342Z,10.15
2018-09-21T09:38:54.870Z,10.58
2018-09-21T09:41:23.410Z,10.78
2018-09-21T09:43:51.960Z,8.93
2018-09-21T09:46:20.522Z,9.85
2018-09-21T09:48:49.235Z,9.58
2018-09-21T09:51:17.686Z,8.20
2018-09-21T09:53:46.213Z,7.95
2018-09-21T09:56:14.694Z,7.00
2018-09-21T09:58:43.242Z,6.97
2018-09-21T10:01:11.795Z,6.85
2018-09-21T10:03:40.389Z,5.50
2018-09-21T10:06:08.898Z,5.30
2018-09-21T10:08:37.419Z,5.15
2018-09-21T10:11:06.051Z,4.95
2018-09-21T10:13:34.616Z,4.20
2018-09-21T10:16:03.142Z,3.92
2018-09-21T10:18:31.730Z,3.83
2018-09-21T10:21:00.246Z,3.60
2018-09-21T10:23:28.779Z,3.42
2018-09-21T10:25:57.305Z,3.70
2018-09-21T10:28:25.980Z,3.10
2018-09-21T10:30:54.370Z,3.02
2018-09-21T10:33:22.977Z,3.10
2018-09-21T10:35:51.506Z,2.70
2018-09-21T10:38:20.070Z,3.08
2018-09-21T10:40:48.591Z,2.55
2018-09-21T10:43:17.137Z,2.80
2018-09-21T10:45:45.650Z,2.60
2018-09-21T10:48:14.212Z,2.65
2018-09-21T10:50:42.714Z,2.65
2018-09-21T10:53:11.274Z,2.55
2018-09-21T10:55:39.795Z,2.17
2018-09-21T10:58:08.339Z,2.37
2018-09-21T11:00:36.912Z,2.17
2018-09-21T11:03:05.507Z,2.45
2018-09-21T11:05:33.991Z,2.33
2018-09-21T11:08:02.548Z,2.25
2018-09-21T11:10:31.115Z,2.33
2018-09-21T11:12:59.688Z,2.08
2018-09-21T11:15:28.218Z,2.37
2018-09-21T11:17:56.866Z,2.40
2018-09-21T11:20:26.585Z,2.10
2018-09-21T11:22:56.134Z,2.25
2018-09-21T11:25:26.235Z,1.90
2018-09-21T11:27:57.280Z,2.20
2018-09-21T11:30:25.908Z,2.02
2018-09-21T11:32:55.742Z,2.17
2018-09-21T11:35:25.532Z,2.27
2018-09-21T11:37:54.063Z,2.30
2018-09-21T11:40:22.656Z,2.20
2018-09-21T11:42:51.199Z,2.00
2018-09-21T11:45:19.777Z,2.00
2018-09-21T11:47:48.406Z,2.22
2018-09-21T11:50:17.744Z,2.20
2018-09-21T11:52:46.389Z,2.37
2018-09-21T11:55:14.998Z,2.02
2018-09-21T11:57:43.546Z,2.00
2018-09-21T12:00:12.116Z,1.98
2018-09-21T12:02:40.723Z,2.05
2018-09-21T12:05:09.290Z,1.85
2018-09-21T12:07:37.842Z,2.20
2018-09-21T12:10:06.484Z,2.17
2018-09-21T12:12:35.675Z,2.00
2018-09-21T12:15:04.791Z,2.02
2018-09-21T12:17:34.402Z,2.22
2018-09-21T12:20:03.488Z,2.12
2018-09-21T12:22:32.005Z,1.98
2018-09-21T12:25:00.563Z,2.40
2018-09-21T12:27:30.424Z,2.12
2018-09-21T12:30:00.197Z,2.22
2018-09-21T12:32:29.089Z,2.08
2018-09-21T12:34:59.253Z,2.45
2018-09-21T12:37:27.892Z,2.50
2018-09-21T12:39:58.186Z,2.22
2018-09-21T12:42:28.045Z,2.27
2018-09-21T12:44:56.939Z,2.15
2018-09-21T12:47:26.655Z,1.50
2018-09-21T12:49:56.900Z,1.02
2018-09-21T12:52:26.479Z,1.20
2018-09-21T12:54:56.275Z,0.90
2018-09-21T12:57:26.083Z,0.70
2018-09-21T12:59:56.031Z,1.00
2018-09-21T13:02:25.731Z,0.60
2018-09-21T13:04:55.442Z,0.73
2018-09-21T13:07:25.058Z,0.57
2018-09-21T13:09:55.210Z,0.80
2018-09-21T13:12:23.809Z,0.87
2018-09-21T13:14:53.826Z,1.00
2018-09-21T13:17:22.461Z,0.63
2018-09-21T13:19:51.801Z,0.70
2018-09-21T13:22:20.320Z,0.90
2018-09-21T13:24:48.867Z,0.83
2018-09-21T13:27:17.646Z,1.00
2018-09-21T13:29:47.125Z,0.73
2018-09-21T13:32:16.879Z,0.77
2018-09-21T13:34:48.367Z,0.90
2018-09-21T13:37:17.907Z,0.83
2018-09-21T13:39:46.747Z,0.90
2018-09-21T13:42:16.664Z,1.10
2018-09-21T13:44:45.190Z,1.00
2018-09-21T13:47:14.706Z,0.90
2018-09-21T13:49:44.844Z,1.00
2018-09-21T13:52:14.225Z,1.13
2018-09-21T13:54:42.775Z,1.17
2018-09-21T13:57:11.308Z,1.20
2018-09-21T13:59:40.330Z,1.07
2018-09-21T14:02:08.901Z,1.13
2018-09-21T14:04:37.410Z,1.30
2018-09-21T14:07:06.146Z,1.30
2018-09-21T14:09:34.678Z,1.73
2018-09-21T14:12:03.218Z,1.47
2018-09-21T14:14:31.897Z,1.40
2018-09-21T14:17:00.482Z,1.50
2018-09-21T14:19:29.014Z,1.50
2018-09-21T14:21:59.014Z,1.63
2018-09-21T14:24:27.570Z,1.60
2018-09-21T14:26:56.143Z,1.70
2018-09-21T14:29:26.298Z,1.60
2018-09-21T14:31:55.888Z,1.43
2018-09-21T14:34:32.936Z,1.60
2018-09-21T14:37:05.592Z,1.43
2018-09-21T14:39:34.890Z,1.80
2018-09-21T14:42:04.189Z,1.77
2018-09-21T14:44:34.376Z,1.60
2018-09-21T14:47:07.905Z,1.43
2018-09-21T14:49:39.705Z,1.50
2018-09-21T14:52:10.609Z,1.70
2018-09-21T14:54:41.938Z,1.83
2018-09-21T14:57:12.573Z,1.67
2018-09-21T14:59:41.478Z,1.87
2018-09-21T15:02:10.869Z,2.13
2018-09-21T15:04:39.406Z,1.47
2018-09-21T15:07:11.119Z,1.80
2018-09-21T15:09:39.706Z,1.47
2018-09-21T15:12:08.406Z,1.77
2018-09-21T15:14:37.046Z,1.90
2018-09-21T15:17:05.586Z,2.10
2018-09-21T15:19:34.949Z,1.90
2018-09-21T15:22:04.494Z,1.80
2018-09-21T15:24:33.474Z,1.70
2018-09-21T15:27:04.232Z,2.10
2018-09-21T15:29:32.774Z,1.60
2018-09-21T15:32:01.759Z,1.77
2018-09-21T15:34:30.254Z,1.50
2018-09-21T15:36:58.960Z,1.60
2018-09-21T15:39:28.056Z,1.73
2018-09-21T15:41:56.624Z,1.77
2018-09-21T15:44:28.040Z,1.33
2018-09-21T15:46:58.156Z,1.53
2018-09-21T15:49:28.177Z,1.90
2018-09-21T15:51:58.074Z,1.70
2018-09-21T15:54:28.353Z,1.43
2018-09-21T15:56:58.994Z,1.70
2018-09-21T15:59:28.568Z,1.73
2018-09-21T16:01:57.668Z,1.53
2018-09-21T16:04:28.690Z,2.00
2018-09-21T16:07:00.471Z,1.67
2018-09-21T16:09:33.926Z,1.73
2018-09-21T16:12:04.909Z,1.43
2018-09-21T16:14:34.864Z,1.40
2018-09-21T16:17:06.898Z,1.50
2018-09-21T16:19:35.410Z,1.43
2018-09-21T16:22:03.950Z,1.90
2018-09-21T16:24:32.457Z,1.70
2018-09-21T16:27:01.000Z,2.10
2018-09-21T16:29:29.539Z,1.77
2018-09-21T16:31:58.613Z,1.80
2018-09-21T16:34:27.124Z,1.70
2018-09-21T16:36:55.683Z,1.67
2018-09-21T16:39:24.292Z,1.40
2018-09-21T16:41:53.203Z,1.13
2018-09-21T16:44:21.866Z,1.47
2018-09-21T16:46:51.804Z,1.30
2018-09-21T16:49:20.573Z,1.30
2018-09-21T16:51:49.719Z,1.10
2018-09-21T16:54:18.379Z,1.50
2018-09-21T16:56:47.015Z,1.73
2018-09-21T16:59:15.546Z,2.17
2018-09-21T17:01:44.089Z,1.50
2018-09-21T17:04:12.700Z,1.20
2018-09-21T17:06:41.164Z,1.30
2018-09-21T17:09:11.565Z,1.17
2018-09-21T17:11:40.234Z,1.00
2018-09-21T17:14:08.843Z,1.17
2018-09-21T17:16:37.387Z,0.93
2018-09-21T17:19:06.187Z,0.87
2018-09-21T17:21:36.995Z,1.00
2018-09-21T17:24:05.871Z,0.83
2018-09-21T17:26:34.528Z,0.90
2018-09-21T17:29:06.773Z,0.80
2018-09-21T17:31:36.238Z,1.00
2018-09-21T17:34:05.842Z,0.90
2018-09-21T17:36:35.337Z,0.80
2018-09-21T17:39:06.585Z,0.97
2018-09-21T17:41:36.928Z,0.67
2018-09-21T17:44:06.713Z,1.00
2018-09-21T17:46:36.439Z,0.70
2018-09-21T17:49:12.386Z,0.90
2018-09-21T17:51:43.974Z,0.77
2018-09-21T17:54:17.387Z,1.10
2018-09-21T17:56:46.660Z,0.80
2018-09-21T17:59:17.196Z,0.93
2018-09-21T18:01:47.283Z,0.80
2018-09-21T18:04:19.876Z,0.97
2018-09-21T18:06:55.238Z,1.10
2018-09-21T18:09:27.410Z,0.90
2018-09-21T18:12:00.753Z,0.80
2018-09-21T18:14:30.068Z,1.20
2018-09-21T18:16:59.467Z,1.10
2018-09-21T18:19:28.055Z,0.60
2018-09-21T18:21:56.623Z,1.10
2018-09-21T18:24:25.182Z,0.67
2018-09-21T18:26:54.106Z,0.73
2018-09-21T18:29:22.782Z,1.30
2018-09-21T18:31:51.359Z,0.90
2018-09-21T18:34:20.146Z,0.80
2018-09-21T18:36:51.325Z,0.97
2018-09-21T18:39:19.976Z,0.97
2018-09-21T18:41:49.955Z,1.07
2018-09-21T18:44:20.103Z,0.83
2018-09-21T18:46:50.695Z,0.70
2018-09-21T18:49:20.817Z,1.00
2018-09-21T18:51:50.392Z,0.83
2018-09-21T18:54:19.406Z,0.90
2018-09-21T18:56:49.492Z,1.00
2018-09-21T18:59:18.144Z,1.03
2018-09-21T19:01:48.277Z,1.00
2018-09-21T19:04:17.516Z,1.50
2018-09-21T19:06:46.844Z,1.10
2018-09-21T19:09:16.194Z,1.20
2018-09-21T19:11:49.604Z,1.10
2018-09-21T19:14:18.186Z,1.00
2018-09-21T19:16:46.741Z,1.00
2018-09-21T19:19:15.236Z,1.30
2018-09-21T19:21:44.245Z,0.90
2018-09-21T19:24:14.370Z,0.83
2018-09-21T19:26:43.536Z,0.90
2018-09-21T19:29:13.015Z,0.93
2018-09-21T19:31:41.919Z,1.00
2018-09-21T19:34:13.326Z,0.90
2018-09-21T19:36:42.775Z,0.97
2018-09-21T19:39:12.568Z,0.97
2018-09-21T19:41:41.382Z,0.90
2018-09-21T19:44:09.944Z,1.20
2018-09-21T19:46:40.374Z,0.90
2018-09-21T19:49:08.887Z,1.07
2018-09-21T19:51:38.418Z,1.00
2018-09-21T19:54:07.152Z,1.00
2018-09-21T19:56:35.686Z,1.07
2018-09-21T19:59:04.234Z,0.93
2018-09-21T20:01:33.893Z,1.23
2018-09-21T20:04:03.210Z,1.10
2018-09-21T20:06:31.771Z,1.27
2018-09-21T20:09:00.326Z,1.10
2018-09-21T20:11:29.850Z,0.93
2018-09-21T20:13:59.279Z,1.00
2018-09-21T20:16:27.882Z,1.17
2018-09-21T20:18:57.041Z,1.13
2018-09-21T20:21:26.515Z,1.20
2018-09-21T20:23:55.085Z,0.90
2018-09-21T20:26:23.579Z,0.83
2018-09-21T20:28:52.181Z,1.10
2018-09-21T20:31:26.574Z,1.00
2018-09-21T20:33:55.496Z,1.10
2018-09-21T20:36:24.224Z,1.00
2018-09-21T20:38:52.782Z,0.90
2018-09-21T20:41:21.253Z,1.03
2018-09-21T20:43:50.686Z,0.90
2018-09-21T20:46:19.502Z,0.97
2018-09-21T20:48:48.883Z,1.30
2018-09-21T20:51:17.464Z,1.27
2018-09-21T20:53:46.003Z,1.03
2018-09-21T20:56:14.503Z,0.97
2018-09-21T20:58:43.058Z,0.90
2018-09-21T21:01:20.749Z,1.07
2018-09-21T21:03:50.397Z,1.10
2018-09-21T21:06:21.487Z,0.90
2018-09-21T21:08:50.061Z,1.27
2018-09-21T21:11:18.954Z,1.00
2018-09-21T21:13:47.482Z,1.00
2018-09-21T21:16:16.918Z,1.30
2018-09-21T21:18:45.726Z,1.10
2018-09-21T21:21:15.249Z,1.23
2018-09-21T21:23:43.870Z,1.20
2018-09-21T21:26:12.400Z,1.17
2018-09-21T21:28:41.042Z,1.03
2018-09-21T21:31:09.837Z,1.07
2018-09-21T21:33:38.419Z,1.20
2018-09-21T21:36:07.201Z,1.30
2018-09-21T21:38:36.905Z,1.07
2018-09-21T21:41:06.165Z,1.10
2018-09-21T21:43:34.694Z,0.93
2018-09-21T21:46:03.234Z,1.27
2018-09-21T21:48:31.737Z,1.17
2018-09-21T21:51:00.597Z,1.30
2018-09-21T21:53:29.181Z,1.30
2018-09-21T21:55:57.711Z,1.00
2018-09-21T21:58:26.250Z,1.00
2018-09-21T22:01:00.013Z,1.10
2018-09-21T22:03:28.610Z,1.10
2018-09-21T22:05:57.151Z,1.47
2018-09-21T22:08:25.729Z,1.20
2018-09-21T22:10:54.261Z,1.37
2018-09-21T22:13:28.156Z,1.10
2018-09-21T22:15:56.715Z,1.13
2018-09-21T22:18:25.249Z,0.90
2018-09-21T22:20:53.798Z,1.30
2018-09-21T22:23:22.283Z,1.10
2018-09-21T22:25:50.801Z,1.00
2018-09-21T22:28:19.323Z,1.10
2018-09-21T22:30:47.854Z,1.00
2018-09-21T22:33:16.439Z,1.13
2018-09-21T22:35:45.369Z,0.90
2018-09-21T22:38:14.267Z,1.20
2018-09-21T22:40:42.804Z,1.10
2018-09-21T22:43:11.519Z,1.50
2018-09-21T22:45:40.055Z,1.40
2018-09-21T22:48:08.584Z,1.30
2018-09-21T22:50:37.135Z,1.37
2018-09-21T22:53:05.969Z,1.30
2018-09-21T22:55:34.504Z,1.33
2018-09-21T22:58:03.117Z,1.67
2018-09-21T23:00:31.719Z,1.10
2018-09-21T23:03:00.253Z,1.07
2018-09-21T23:05:28.921Z,1.07
2018-09-21T23:07:57.434Z,1.53
2018-09-21T23:10:25.974Z,1.23
2018-09-21T23:12:54.494Z,1.60
2018-09-21T23:15:23.039Z,1.30
2018-09-21T23:17:51.551Z,1.27
2018-09-21T23:20:20.082Z,1.60
2018-09-21T23:22:48.559Z,1.23
2018-09-21T23:25:17.074Z,1.60
2018-09-21T23:27:45.583Z,1.43
2018-09-21T23:30:14.098Z,1.70
2018-09-21T23:32:42.592Z,1.60
2018-09-21T23:35:11.139Z,1.40
2018-09-21T23:37:39.616Z,1.50
2018-09-21T23:40:08.196Z,1.20
2018-09-21T23:42:36.694Z,1.60
2018-09-21T23:45:05.285Z,1.40
2018-09-21T23:47:33.786Z,1.60
2018-09-21T23:50:02.297Z,1.50
2018-09-21T23:52:30.845Z,1.53
2018-09-21T23:54:59.354Z,1.73
2018-09-21T23:57:27.848Z,1.30
2018-09-21T23:59:56.374Z,1.70
